Accueil
METAR-TAF:

METAR-TAF

Aéroports :

Wiesbaden, Allemagne

Lucius D. Clay Kaserne

latitude: 50-03N, longitude: 008-20E, altitude: 140 m

Observation

Le bulletin a été fait il y a 58 minutes, à 23:56 UTC
Vent calme
Température 11°C
Humidité 76%
Pression 1018 hPa
Visibilité 10 km ou plus
Ciel clair

METAR: ETOU 232356Z AUTO 00000KT 9999 CLR 11/07 A3006 RMK AO2 SLP180 T01070074 10193 20103 51009

Heure: 02:54 (00:54 UTC)


TAF: absent

Observations et prévisions météorologiques de plus de 4000 aéroports (messages METAR et TAF).

Les stations disponibles sont représentées par des disques jaunes et rouges sur la carte.

Passer la souris dessus pour voir le nom de la station.

Cliquer dessus pour voir les observations et prévisions météorologiques.

Pour changer de carte: cliquez sur les boutons verts avec une croix noire pour zoomer, sur le bouton vert avec un tiret pour effectuer un zoom arrière, ou sur les flèches vertes pour les cartes adjacentes.


METAR-TAF: